sensor_id;sensor_type;location;lat;lon;timestamp;P1;durP1;ratioP1;P2;durP2;ratioP2
30378;SDS011;17168;49.164;9.060;2023-12-14T00:00:11;6.18;;;3.05;;
30378;SDS011;17168;49.164;9.060;2023-12-14T00:02:44;7.90;;;3.33;;
30378;SDS011;17168;49.164;9.060;2023-12-14T00:05:16;7.75;;;3.35;;
30378;SDS011;17168;49.164;9.060;2023-12-14T00:07:48;9.48;;;3.38;;
30378;SDS011;17168;49.164;9.060;2023-12-14T00:10:23;6.75;;;3.22;;
30378;SDS011;17168;49.164;9.060;2023-12-14T00:12:56;7.07;;;3.55;;
30378;SDS011;17168;49.164;9.060;2023-12-14T00:15:28;8.27;;;3.88;;
30378;SDS011;17168;49.164;9.060;2023-12-14T00:18:00;6.43;;;2.88;;
30378;SDS011;17168;49.164;9.060;2023-12-14T00:20:33;9.93;;;3.90;;
30378;SDS011;17168;49.164;9.060;2023-12-14T00:23:05;8.52;;;3.83;;
30378;SDS011;17168;49.164;9.060;2023-12-14T00:25:40;9.77;;;2.97;;
30378;SDS011;17168;49.164;9.060;2023-12-14T00:28:12;8.10;;;3.55;;
30378;SDS011;17168;49.164;9.060;2023-12-14T00:30:44;8.10;;;3.95;;
30378;SDS011;17168;49.164;9.060;2023-12-14T00:33:16;8.70;;;4.38;;
30378;SDS011;17168;49.164;9.060;2023-12-14T00:35:49;9.82;;;4.10;;
30378;SDS011;17168;49.164;9.060;2023-12-14T00:38:21;8.60;;;4.10;;
30378;SDS011;17168;49.164;9.060;2023-12-14T00:40:56;7.70;;;3.75;;
30378;SDS011;17168;49.164;9.060;2023-12-14T00:43:28;8.52;;;4.40;;
30378;SDS011;17168;49.164;9.060;2023-12-14T00:46:00;8.70;;;4.15;;
30378;SDS011;17168;49.164;9.060;2023-12-14T00:48:32;9.27;;;4.68;;
30378;SDS011;17168;49.164;9.060;2023-12-14T00:51:05;8.65;;;4.32;;
30378;SDS011;17168;49.164;9.060;2023-12-14T00:53:37;10.15;;;4.93;;
30378;SDS011;17168;49.164;9.060;2023-12-14T00:56:12;8.98;;;4.75;;
30378;SDS011;17168;49.164;9.060;2023-12-14T00:58:44;10.00;;;4.65;;
30378;SDS011;17168;49.164;9.060;2023-12-14T01:01:16;11.73;;;5.22;;
30378;SDS011;17168;49.164;9.060;2023-12-14T01:03:49;11.48;;;5.45;;
30378;SDS011;17168;49.164;9.060;2023-12-14T01:06:21;10.57;;;5.22;;
30378;SDS011;17168;49.164;9.060;2023-12-14T01:08:53;12.82;;;6.00;;
30378;SDS011;17168;49.164;9.060;2023-12-14T01:11:28;12.18;;;5.68;;
30378;SDS011;17168;49.164;9.060;2023-12-14T01:14:00;12.60;;;5.82;;
30378;SDS011;17168;49.164;9.060;2023-12-14T01:16:32;11.40;;;5.85;;
30378;SDS011;17168;49.164;9.060;2023-12-14T01:19:05;8.45;;;5.32;;
30378;SDS011;17168;49.164;9.060;2023-12-14T01:21:37;12.40;;;5.85;;
30378;SDS011;17168;49.164;9.060;2023-12-14T01:24:09;14.60;;;5.70;;
30378;SDS011;17168;49.164;9.060;2023-12-14T01:26:45;13.10;;;6.80;;
30378;SDS011;17168;49.164;9.060;2023-12-14T01:29:17;11.52;;;5.82;;
30378;SDS011;17168;49.164;9.060;2023-12-14T01:31:49;12.02;;;5.47;;
30378;SDS011;17168;49.164;9.060;2023-12-14T01:34:21;13.90;;;5.72;;
30378;SDS011;17168;49.164;9.060;2023-12-14T01:36:53;13.43;;;6.93;;
30378;SDS011;17168;49.164;9.060;2023-12-14T01:39:26;12.00;;;5.10;;
30378;SDS011;17168;49.164;9.060;2023-12-14T01:42:01;12.73;;;6.38;;
30378;SDS011;17168;49.164;9.060;2023-12-14T01:44:33;12.23;;;6.15;;
30378;SDS011;17168;49.164;9.060;2023-12-14T01:47:05;12.48;;;6.30;;
30378;SDS011;17168;49.164;9.060;2023-12-14T01:49:38;13.73;;;5.68;;
30378;SDS011;17168;49.164;9.060;2023-12-14T01:52:13;15.05;;;6.15;;
30378;SDS011;17168;49.164;9.060;2023-12-14T01:54:45;11.50;;;6.60;;
30378;SDS011;17168;49.164;9.060;2023-12-14T01:57:20;15.35;;;6.53;;
30378;SDS011;17168;49.164;9.060;2023-12-14T01:59:52;13.13;;;5.72;;
30378;SDS011;17168;49.164;9.060;2023-12-14T02:02:24;14.30;;;7.15;;
30378;SDS011;17168;49.164;9.060;2023-12-14T02:04:57;14.65;;;7.05;;
30378;SDS011;17168;49.164;9.060;2023-12-14T02:07:29;13.65;;;6.68;;
30378;SDS011;17168;49.164;9.060;2023-12-14T02:10:01;14.02;;;6.32;;
30378;SDS011;17168;49.164;9.060;2023-12-14T02:12:37;10.98;;;6.32;;
30378;SDS011;17168;49.164;9.060;2023-12-14T02:15:09;16.30;;;7.32;;
30378;SDS011;17168;49.164;9.060;2023-12-14T02:17:42;16.77;;;7.00;;
30378;SDS011;17168;49.164;9.060;2023-12-14T02:20:14;15.98;;;7.05;;
30378;SDS011;17168;49.164;9.060;2023-12-14T02:22:52;17.85;;;8.23;;
30378;SDS011;17168;49.164;9.060;2023-12-14T02:25:24;15.02;;;7.28;;
30378;SDS011;17168;49.164;9.060;2023-12-14T02:27:57;13.15;;;6.70;;
30378;SDS011;17168;49.164;9.060;2023-12-14T02:30:29;16.38;;;7.63;;
30378;SDS011;17168;49.164;9.060;2023-12-14T02:33:01;18.25;;;7.90;;
30378;SDS011;17168;49.164;9.060;2023-12-14T02:35:34;17.88;;;8.05;;
30378;SDS011;17168;49.164;9.060;2023-12-14T02:38:09;16.60;;;8.43;;
30378;SDS011;17168;49.164;9.060;2023-12-14T02:40:41;16.33;;;8.40;;
30378;SDS011;17168;49.164;9.060;2023-12-14T02:43:13;16.25;;;8.48;;
30378;SDS011;17168;49.164;9.060;2023-12-14T02:45:45;18.98;;;9.15;;
30378;SDS011;17168;49.164;9.060;2023-12-14T02:48:18;21.13;;;9.18;;
30378;SDS011;17168;49.164;9.060;2023-12-14T02:50:50;17.00;;;8.25;;
30378;SDS011;17168;49.164;9.060;2023-12-14T02:53:25;16.95;;;8.35;;
30378;SDS011;17168;49.164;9.060;2023-12-14T02:56:00;17.25;;;8.50;;
30378;SDS011;17168;49.164;9.060;2023-12-14T02:58:32;19.35;;;8.48;;
30378;SDS011;17168;49.164;9.060;2023-12-14T03:01:05;16.92;;;8.05;;
30378;SDS011;17168;49.164;9.060;2023-12-14T03:03:38;16.83;;;9.18;;
30378;SDS011;17168;49.164;9.060;2023-12-14T03:06:11;18.70;;;8.15;;
30378;SDS011;17168;49.164;9.060;2023-12-14T03:08:46;15.15;;;8.38;;
30378;SDS011;17168;49.164;9.060;2023-12-14T03:11:21;19.88;;;8.73;;
30378;SDS011;17168;49.164;9.060;2023-12-14T03:13:55;18.08;;;8.70;;
30378;SDS011;17168;49.164;9.060;2023-12-14T03:16:27;19.85;;;9.52;;
30378;SDS011;17168;49.164;9.060;2023-12-14T03:18:59;20.17;;;8.75;;
30378;SDS011;17168;49.164;9.060;2023-12-14T03:21:31;20.85;;;10.52;;
30378;SDS011;17168;49.164;9.060;2023-12-14T03:24:06;19.20;;;9.20;;
30378;SDS011;17168;49.164;9.060;2023-12-14T03:26:38;23.40;;;10.18;;
30378;SDS011;17168;49.164;9.060;2023-12-14T03:29:11;17.60;;;9.52;;
30378;SDS011;17168;49.164;9.060;2023-12-14T03:31:43;19.60;;;9.35;;
30378;SDS011;17168;49.164;9.060;2023-12-14T03:34:16;18.35;;;9.13;;
30378;SDS011;17168;49.164;9.060;2023-12-14T03:36:49;21.08;;;10.43;;
30378;SDS011;17168;49.164;9.060;2023-12-14T03:39:24;20.17;;;10.38;;
30378;SDS011;17168;49.164;9.060;2023-12-14T03:41:56;19.38;;;9.25;;
30378;SDS011;17168;49.164;9.060;2023-12-14T03:44:28;23.92;;;10.20;;
30378;SDS011;17168;49.164;9.060;2023-12-14T03:47:00;21.08;;;10.02;;
30378;SDS011;17168;49.164;9.060;2023-12-14T03:49:36;20.40;;;9.52;;
30378;SDS011;17168;49.164;9.060;2023-12-14T03:52:08;21.98;;;10.63;;
30378;SDS011;17168;49.164;9.060;2023-12-14T03:54:43;20.23;;;10.13;;
30378;SDS011;17168;49.164;9.060;2023-12-14T03:57:16;18.77;;;9.32;;
30378;SDS011;17168;49.164;9.060;2023-12-14T03:59:48;21.05;;;10.85;;
30378;SDS011;17168;49.164;9.060;2023-12-14T04:02:20;18.63;;;9.35;;
30378;SDS011;17168;49.164;9.060;2023-12-14T04:04:52;23.55;;;10.98;;
30378;SDS011;17168;49.164;9.060;2023-12-14T04:07:24;18.13;;;9.07;;
30378;SDS011;17168;49.164;9.060;2023-12-14T04:09:59;18.88;;;8.93;;
30378;SDS011;17168;49.164;9.060;2023-12-14T04:12:32;19.48;;;8.88;;
30378;SDS011;17168;49.164;9.060;2023-12-14T04:15:07;21.00;;;9.05;;
30378;SDS011;17168;49.164;9.060;2023-12-14T04:17:41;23.48;;;9.13;;
30378;SDS011;17168;49.164;9.060;2023-12-14T04:20:13;23.20;;;10.98;;
30378;SDS011;17168;49.164;9.060;2023-12-14T04:22:47;19.02;;;9.50;;
30378;SDS011;17168;49.164;9.060;2023-12-14T04:25:22;23.05;;;10.55;;
30378;SDS011;17168;49.164;9.060;2023-12-14T04:27:54;22.75;;;10.23;;
30378;SDS011;17168;49.164;9.060;2023-12-14T04:30:27;22.27;;;10.20;;
30378;SDS011;17168;49.164;9.060;2023-12-14T04:32:59;23.00;;;10.35;;
30378;SDS011;17168;49.164;9.060;2023-12-14T04:35:31;21.70;;;10.02;;
30378;SDS011;17168;49.164;9.060;2023-12-14T04:38:08;20.42;;;9.10;;
30378;SDS011;17168;49.164;9.060;2023-12-14T04:40:43;19.73;;;10.18;;
30378;SDS011;17168;49.164;9.060;2023-12-14T04:43:15;20.70;;;10.25;;
30378;SDS011;17168;49.164;9.060;2023-12-14T04:45:47;20.20;;;9.98;;
30378;SDS011;17168;49.164;9.060;2023-12-14T04:48:20;22.30;;;10.32;;
30378;SDS011;17168;49.164;9.060;2023-12-14T04:50:52;20.67;;;10.00;;
30378;SDS011;17168;49.164;9.060;2023-12-14T04:53:25;23.50;;;9.75;;
30378;SDS011;17168;49.164;9.060;2023-12-14T04:56:00;22.55;;;10.10;;
30378;SDS011;17168;49.164;9.060;2023-12-14T04:58:32;22.30;;;8.60;;
30378;SDS011;17168;49.164;9.060;2023-12-14T05:01:07;21.33;;;10.48;;
30378;SDS011;17168;49.164;9.060;2023-12-14T05:03:39;21.00;;;10.00;;
30378;SDS011;17168;49.164;9.060;2023-12-14T05:06:12;26.55;;;9.57;;
30378;SDS011;17168;49.164;9.060;2023-12-14T05:08:44;23.27;;;10.18;;
30378;SDS011;17168;49.164;9.060;2023-12-14T05:11:19;23.00;;;10.35;;
30378;SDS011;17168;49.164;9.060;2023-12-14T05:13:51;20.80;;;9.50;;
30378;SDS011;17168;49.164;9.060;2023-12-14T05:16:23;22.45;;;10.18;;
30378;SDS011;17168;49.164;9.060;2023-12-14T05:18:58;21.90;;;10.40;;
30378;SDS011;17168;49.164;9.060;2023-12-14T05:21:30;20.17;;;10.00;;
30378;SDS011;17168;49.164;9.060;2023-12-14T05:24:03;25.85;;;10.65;;
30378;SDS011;17168;49.164;9.060;2023-12-14T05:26:38;21.90;;;9.80;;
30378;SDS011;17168;49.164;9.060;2023-12-14T05:29:11;21.52;;;11.00;;
30378;SDS011;17168;49.164;9.060;2023-12-14T05:31:43;27.20;;;11.10;;
30378;SDS011;17168;49.164;9.060;2023-12-14T05:34:15;31.58;;;11.30;;
30378;SDS011;17168;49.164;9.060;2023-12-14T05:36:47;23.17;;;9.93;;
30378;SDS011;17168;49.164;9.060;2023-12-14T05:39:20;21.98;;;10.10;;
30378;SDS011;17168;49.164;9.060;2023-12-14T05:41:54;25.38;;;10.80;;
30378;SDS011;17168;49.164;9.060;2023-12-14T05:44:27;24.10;;;9.93;;
30378;SDS011;17168;49.164;9.060;2023-12-14T05:46:59;25.60;;;11.73;;
30378;SDS011;17168;49.164;9.060;2023-12-14T05:49:31;26.80;;;11.13;;
30378;SDS011;17168;49.164;9.060;2023-12-14T05:52:04;28.83;;;11.70;;
30378;SDS011;17168;49.164;9.060;2023-12-14T05:54:36;28.55;;;11.80;;
30378;SDS011;17168;49.164;9.060;2023-12-14T05:57:11;26.23;;;11.48;;
30378;SDS011;17168;49.164;9.060;2023-12-14T05:59:45;27.17;;;11.50;;
30378;SDS011;17168;49.164;9.060;2023-12-14T06:02:18;30.95;;;11.85;;
30378;SDS011;17168;49.164;9.060;2023-12-14T06:04:50;29.67;;;11.73;;
30378;SDS011;17168;49.164;9.060;2023-12-14T06:07:30;23.48;;;10.43;;
30378;SDS011;17168;49.164;9.060;2023-12-14T06:10:03;24.40;;;10.77;;
30378;SDS011;17168;49.164;9.060;2023-12-14T06:12:41;24.75;;;10.45;;
30378;SDS011;17168;49.164;9.060;2023-12-14T06:15:13;27.15;;;10.93;;
30378;SDS011;17168;49.164;9.060;2023-12-14T06:17:47;28.45;;;12.32;;
30378;SDS011;17168;49.164;9.060;2023-12-14T06:20:19;29.90;;;12.75;;
30378;SDS011;17168;49.164;9.060;2023-12-14T06:22:51;34.42;;;12.45;;
30378;SDS011;17168;49.164;9.060;2023-12-14T06:25:27;32.35;;;11.95;;
30378;SDS011;17168;49.164;9.060;2023-12-14T06:28:02;30.67;;;12.52;;
30378;SDS011;17168;49.164;9.060;2023-12-14T06:30:37;33.63;;;13.30;;
30378;SDS011;17168;49.164;9.060;2023-12-14T06:33:09;29.95;;;11.80;;
30378;SDS011;17168;49.164;9.060;2023-12-14T06:35:42;29.60;;;12.05;;
30378;SDS011;17168;49.164;9.060;2023-12-14T06:38:14;29.98;;;10.75;;
30378;SDS011;17168;49.164;9.060;2023-12-14T06:40:52;30.05;;;11.40;;
30378;SDS011;17168;49.164;9.060;2023-12-14T06:43:35;27.02;;;11.18;;
30378;SDS011;17168;49.164;9.060;2023-12-14T06:46:07;29.05;;;12.00;;
30378;SDS011;17168;49.164;9.060;2023-12-14T06:48:47;29.33;;;12.00;;
30378;SDS011;17168;49.164;9.060;2023-12-14T06:51:26;27.45;;;11.18;;
30378;SDS011;17168;49.164;9.060;2023-12-14T06:53:58;28.13;;;10.40;;
30378;SDS011;17168;49.164;9.060;2023-12-14T06:56:30;33.42;;;12.10;;
30378;SDS011;17168;49.164;9.060;2023-12-14T06:59:05;36.47;;;12.20;;
30378;SDS011;17168;49.164;9.060;2023-12-14T07:01:37;28.40;;;11.20;;
30378;SDS011;17168;49.164;9.060;2023-12-14T07:04:12;30.70;;;10.63;;
30378;SDS011;17168;49.164;9.060;2023-12-14T07:06:51;30.15;;;11.90;;
30378;SDS011;17168;49.164;9.060;2023-12-14T07:09:23;31.13;;;10.80;;
30378;SDS011;17168;49.164;9.060;2023-12-14T07:11:56;28.40;;;11.18;;
30378;SDS011;17168;49.164;9.060;2023-12-14T07:14:30;32.15;;;13.07;;
30378;SDS011;17168;49.164;9.060;2023-12-14T07:17:03;26.98;;;11.00;;
30378;SDS011;17168;49.164;9.060;2023-12-14T07:19:38;29.52;;;11.38;;
30378;SDS011;17168;49.164;9.060;2023-12-14T07:22:10;33.47;;;10.48;;
30378;SDS011;17168;49.164;9.060;2023-12-14T07:24:42;30.10;;;11.73;;
30378;SDS011;17168;49.164;9.060;2023-12-14T07:27:29;32.33;;;11.63;;
30378;SDS011;17168;49.164;9.060;2023-12-14T07:30:05;35.30;;;13.27;;
30378;SDS011;17168;49.164;9.060;2023-12-14T07:32:42;30.00;;;11.45;;
30378;SDS011;17168;49.164;9.060;2023-12-14T07:35:14;34.45;;;12.27;;
30378;SDS011;17168;49.164;9.060;2023-12-14T07:37:46;36.45;;;11.75;;
30378;SDS011;17168;49.164;9.060;2023-12-14T07:40:19;32.35;;;12.68;;
30378;SDS011;17168;49.164;9.060;2023-12-14T07:42:51;34.17;;;12.38;;
30378;SDS011;17168;49.164;9.060;2023-12-14T07:45:30;35.58;;;12.15;;
30378;SDS011;17168;49.164;9.060;2023-12-14T07:48:02;34.85;;;11.85;;
30378;SDS011;17168;49.164;9.060;2023-12-14T07:50:38;34.83;;;12.20;;
30378;SDS011;17168;49.164;9.060;2023-12-14T07:53:10;37.80;;;13.15;;
30378;SDS011;17168;49.164;9.060;2023-12-14T07:55:42;39.53;;;13.88;;
30378;SDS011;17168;49.164;9.060;2023-12-14T07:58:15;40.40;;;14.23;;
30378;SDS011;17168;49.164;9.060;2023-12-14T08:00:50;33.50;;;13.20;;
30378;SDS011;17168;49.164;9.060;2023-12-14T08:03:22;35.20;;;13.93;;
30378;SDS011;17168;49.164;9.060;2023-12-14T08:05:55;35.25;;;12.73;;
30378;SDS011;17168;49.164;9.060;2023-12-14T08:08:27;35.08;;;12.40;;
30378;SDS011;17168;49.164;9.060;2023-12-14T08:10:59;30.83;;;12.15;;
30378;SDS011;17168;49.164;9.060;2023-12-14T08:13:31;33.63;;;12.38;;
30378;SDS011;17168;49.164;9.060;2023-12-14T08:16:07;33.92;;;12.95;;
30378;SDS011;17168;49.164;9.060;2023-12-14T08:18:39;32.05;;;12.90;;
30378;SDS011;17168;49.164;9.060;2023-12-14T08:21:13;40.00;;;13.63;;
30378;SDS011;17168;49.164;9.060;2023-12-14T08:23:46;32.78;;;13.73;;
30378;SDS011;17168;49.164;9.060;2023-12-14T08:26:18;37.50;;;14.00;;
30378;SDS011;17168;49.164;9.060;2023-12-14T08:28:50;35.83;;;13.63;;
30378;SDS011;17168;49.164;9.060;2023-12-14T08:31:29;32.47;;;12.93;;
30378;SDS011;17168;49.164;9.060;2023-12-14T08:34:06;37.13;;;13.55;;
30378;SDS011;17168;49.164;9.060;2023-12-14T08:36:41;35.78;;;13.93;;
30378;SDS011;17168;49.164;9.060;2023-12-14T08:39:13;32.15;;;11.98;;
30378;SDS011;17168;49.164;9.060;2023-12-14T08:41:53;33.17;;;12.82;;
30378;SDS011;17168;49.164;9.060;2023-12-14T08:44:25;35.50;;;12.82;;
30378;SDS011;17168;49.164;9.060;2023-12-14T08:47:06;30.70;;;13.13;;
30378;SDS011;17168;49.164;9.060;2023-12-14T08:49:40;33.15;;;13.90;;
30378;SDS011;17168;49.164;9.060;2023-12-14T08:52:13;27.25;;;12.40;;
30378;SDS011;17168;49.164;9.060;2023-12-14T08:54:46;34.40;;;14.60;;
30378;SDS011;17168;49.164;9.060;2023-12-14T08:57:18;34.17;;;14.85;;
30378;SDS011;17168;49.164;9.060;2023-12-14T08:59:50;33.58;;;13.45;;
30378;SDS011;17168;49.164;9.060;2023-12-14T09:02:32;34.47;;;13.95;;
30378;SDS011;17168;49.164;9.060;2023-12-14T09:05:14;34.80;;;13.23;;
30378;SDS011;17168;49.164;9.060;2023-12-14T09:07:51;34.50;;;14.57;;
30378;SDS011;17168;49.164;9.060;2023-12-14T09:10:26;32.80;;;13.52;;
30378;SDS011;17168;49.164;9.060;2023-12-14T09:13:03;31.70;;;14.43;;
30378;SDS011;17168;49.164;9.060;2023-12-14T09:15:35;32.50;;;14.27;;
30378;SDS011;17168;49.164;9.060;2023-12-14T09:18:10;31.60;;;13.85;;
30378;SDS011;17168;49.164;9.060;2023-12-14T09:20:47;30.63;;;13.38;;
30378;SDS011;17168;49.164;9.060;2023-12-14T09:23:21;26.48;;;13.70;;
30378;SDS011;17168;49.164;9.060;2023-12-14T09:26:01;35.78;;;15.43;;
30378;SDS011;17168;49.164;9.060;2023-12-14T09:28:33;30.42;;;14.68;;
30378;SDS011;17168;49.164;9.060;2023-12-14T09:31:12;31.00;;;13.80;;
30378;SDS011;17168;49.164;9.060;2023-12-14T09:33:47;27.30;;;12.82;;
30378;SDS011;17168;49.164;9.060;2023-12-14T09:36:19;28.45;;;13.43;;
30378;SDS011;17168;49.164;9.060;2023-12-14T09:38:54;26.70;;;12.30;;
30378;SDS011;17168;49.164;9.060;2023-12-14T09:41:26;26.80;;;11.73;;
30378;SDS011;17168;49.164;9.060;2023-12-14T09:43:58;27.80;;;12.75;;
30378;SDS011;17168;49.164;9.060;2023-12-14T09:46:31;30.95;;;12.77;;
30378;SDS011;17168;49.164;9.060;2023-12-14T09:49:11;23.27;;;10.23;;
30378;SDS011;17168;49.164;9.060;2023-12-14T09:51:45;22.70;;;11.13;;
30378;SDS011;17168;49.164;9.060;2023-12-14T09:54:20;23.35;;;11.15;;
30378;SDS011;17168;49.164;9.060;2023-12-14T09:56:52;21.13;;;9.75;;
30378;SDS011;17168;49.164;9.060;2023-12-14T09:59:24;21.67;;;10.68;;
30378;SDS011;17168;49.164;9.060;2023-12-14T10:02:15;24.90;;;11.48;;
30378;SDS011;17168;49.164;9.060;2023-12-14T10:04:57;23.80;;;11.52;;
30378;SDS011;17168;49.164;9.060;2023-12-14T10:07:40;18.10;;;9.70;;
30378;SDS011;17168;49.164;9.060;2023-12-14T10:10:16;21.83;;;9.57;;
30378;SDS011;17168;49.164;9.060;2023-12-14T10:15:41;19.77;;;9.32;;
30378;SDS011;17168;49.164;9.060;2023-12-14T10:18:17;18.83;;;9.25;;
30378;SDS011;17168;49.164;9.060;2023-12-14T10:20:57;19.67;;;8.90;;
30378;SDS011;17168;49.164;9.060;2023-12-14T10:23:29;18.13;;;8.95;;
30378;SDS011;17168;49.164;9.060;2023-12-14T10:26:03;17.58;;;9.05;;
30378;SDS011;17168;49.164;9.060;2023-12-14T10:28:36;19.25;;;9.07;;
30378;SDS011;17168;49.164;9.060;2023-12-14T10:31:10;18.65;;;8.50;;
30378;SDS011;17168;49.164;9.060;2023-12-14T10:33:43;17.83;;;9.68;;
30378;SDS011;17168;49.164;9.060;2023-12-14T10:36:19;19.05;;;9.55;;
30378;SDS011;17168;49.164;9.060;2023-12-14T10:38:56;18.60;;;8.18;;
30378;SDS011;17168;49.164;9.060;2023-12-14T10:41:29;22.27;;;9.82;;
30378;SDS011;17168;49.164;9.060;2023-12-14T10:44:04;18.52;;;9.95;;
30378;SDS011;17168;49.164;9.060;2023-12-14T10:46:58;21.92;;;9.15;;
30378;SDS011;17168;49.164;9.060;2023-12-14T10:49:31;18.65;;;8.98;;
30378;SDS011;17168;49.164;9.060;2023-12-14T10:52:09;17.60;;;8.30;;
30378;SDS011;17168;49.164;9.060;2023-12-14T10:54:41;17.63;;;8.82;;
30378;SDS011;17168;49.164;9.060;2023-12-14T10:57:15;17.65;;;8.55;;
30378;SDS011;17168;49.164;9.060;2023-12-14T10:59:48;14.80;;;7.72;;
30378;SDS011;17168;49.164;9.060;2023-12-14T11:02:20;18.15;;;8.15;;
30378;SDS011;17168;49.164;9.060;2023-12-14T11:04:56;17.08;;;8.27;;
30378;SDS011;17168;49.164;9.060;2023-12-14T11:07:46;15.20;;;8.93;;
30378;SDS011;17168;49.164;9.060;2023-12-14T11:10:21;12.18;;;7.00;;
30378;SDS011;17168;49.164;9.060;2023-12-14T11:12:55;14.85;;;7.25;;
30378;SDS011;17168;49.164;9.060;2023-12-14T11:15:35;19.02;;;8.02;;
30378;SDS011;17168;49.164;9.060;2023-12-14T11:18:24;19.48;;;9.18;;
30378;SDS011;17168;49.164;9.060;2023-12-14T11:20:58;16.08;;;6.97;;
30378;SDS011;17168;49.164;9.060;2023-12-14T11:23:35;15.30;;;7.57;;
30378;SDS011;17168;49.164;9.060;2023-12-14T11:26:10;12.18;;;6.28;;
30378;SDS011;17168;49.164;9.060;2023-12-14T11:28:42;12.45;;;6.10;;
30378;SDS011;17168;49.164;9.060;2023-12-14T11:31:16;15.57;;;7.18;;
30378;SDS011;17168;49.164;9.060;2023-12-14T11:33:48;12.38;;;5.93;;
30378;SDS011;17168;49.164;9.060;2023-12-14T11:36:21;10.65;;;5.55;;
30378;SDS011;17168;49.164;9.060;2023-12-14T11:38:56;10.40;;;5.45;;
30378;SDS011;17168;49.164;9.060;2023-12-14T11:41:31;10.38;;;5.80;;
30378;SDS011;17168;49.164;9.060;2023-12-14T11:44:05;9.85;;;5.55;;
30378;SDS011;17168;49.164;9.060;2023-12-14T11:46:38;12.07;;;6.13;;
30378;SDS011;17168;49.164;9.060;2023-12-14T11:49:14;11.50;;;6.32;;
30378;SDS011;17168;49.164;9.060;2023-12-14T11:51:46;10.43;;;4.78;;
30378;SDS011;17168;49.164;9.060;2023-12-14T11:54:21;9.27;;;5.45;;
30378;SDS011;17168;49.164;9.060;2023-12-14T11:56:56;11.38;;;4.97;;
30378;SDS011;17168;49.164;9.060;2023-12-14T11:59:28;8.40;;;4.85;;
30378;SDS011;17168;49.164;9.060;2023-12-14T12:02:02;10.38;;;5.28;;
30378;SDS011;17168;49.164;9.060;2023-12-14T12:04:38;12.18;;;5.40;;
30378;SDS011;17168;49.164;9.060;2023-12-14T12:07:22;13.13;;;6.18;;
30378;SDS011;17168;49.164;9.060;2023-12-14T12:09:58;10.73;;;5.80;;
30378;SDS011;17168;49.164;9.060;2023-12-14T12:12:30;13.05;;;6.53;;
30378;SDS011;17168;49.164;9.060;2023-12-14T12:15:12;12.82;;;6.03;;
30378;SDS011;17168;49.164;9.060;2023-12-14T12:17:44;11.07;;;5.55;;
30378;SDS011;17168;49.164;9.060;2023-12-14T12:20:17;13.07;;;6.78;;
30378;SDS011;17168;49.164;9.060;2023-12-14T12:22:50;11.95;;;6.72;;
30378;SDS011;17168;49.164;9.060;2023-12-14T12:25:25;12.57;;;6.88;;
30378;SDS011;17168;49.164;9.060;2023-12-14T12:27:59;12.20;;;6.40;;
30378;SDS011;17168;49.164;9.060;2023-12-14T12:30:33;12.43;;;7.38;;
30378;SDS011;17168;49.164;9.060;2023-12-14T12:33:10;12.88;;;6.95;;
30378;SDS011;17168;49.164;9.060;2023-12-14T12:35:43;12.02;;;7.78;;
30378;SDS011;17168;49.164;9.060;2023-12-14T12:38:15;13.15;;;7.43;;
30378;SDS011;17168;49.164;9.060;2023-12-14T12:40:50;12.82;;;6.55;;
30378;SDS011;17168;49.164;9.060;2023-12-14T12:43:22;14.35;;;7.13;;
30378;SDS011;17168;49.164;9.060;2023-12-14T12:45:55;13.25;;;7.55;;
30378;SDS011;17168;49.164;9.060;2023-12-14T12:48:29;15.23;;;7.20;;
30378;SDS011;17168;49.164;9.060;2023-12-14T12:51:04;14.00;;;8.38;;
30378;SDS011;17168;49.164;9.060;2023-12-14T12:53:36;17.27;;;8.40;;
30378;SDS011;17168;49.164;9.060;2023-12-14T12:56:11;15.30;;;7.15;;
30378;SDS011;17168;49.164;9.060;2023-12-14T12:58:44;12.98;;;6.90;;
30378;SDS011;17168;49.164;9.060;2023-12-14T13:01:16;14.77;;;7.05;;
30378;SDS011;17168;49.164;9.060;2023-12-14T13:03:51;14.82;;;8.07;;
30378;SDS011;17168;49.164;9.060;2023-12-14T13:06:28;13.88;;;8.27;;
30378;SDS011;17168;49.164;9.060;2023-12-14T13:09:01;17.48;;;8.25;;
30378;SDS011;17168;49.164;9.060;2023-12-14T13:11:36;13.90;;;7.70;;
30378;SDS011;17168;49.164;9.060;2023-12-14T13:14:08;11.73;;;6.72;;
30378;SDS011;17168;49.164;9.060;2023-12-14T13:16:41;12.57;;;7.10;;
30378;SDS011;17168;49.164;9.060;2023-12-14T13:19:14;13.95;;;7.07;;
30378;SDS011;17168;49.164;9.060;2023-12-14T13:21:47;13.00;;;7.22;;
30378;SDS011;17168;49.164;9.060;2023-12-14T13:24:19;13.23;;;7.57;;
30378;SDS011;17168;49.164;9.060;2023-12-14T13:26:54;12.50;;;7.45;;
30378;SDS011;17168;49.164;9.060;2023-12-14T13:29:26;12.48;;;6.70;;
30378;SDS011;17168;49.164;9.060;2023-12-14T13:31:59;14.30;;;7.85;;
30378;SDS011;17168;49.164;9.060;2023-12-14T13:34:31;12.80;;;7.82;;
30378;SDS011;17168;49.164;9.060;2023-12-14T13:37:04;13.35;;;6.85;;
30378;SDS011;17168;49.164;9.060;2023-12-14T13:39:37;12.27;;;7.00;;
30378;SDS011;17168;49.164;9.060;2023-12-14T13:42:12;12.38;;;6.32;;
30378;SDS011;17168;49.164;9.060;2023-12-14T13:44:46;11.18;;;6.78;;
30378;SDS011;17168;49.164;9.060;2023-12-14T13:47:19;14.90;;;6.97;;
30378;SDS011;17168;49.164;9.060;2023-12-14T13:49:51;11.48;;;6.03;;
30378;SDS011;17168;49.164;9.060;2023-12-14T13:52:24;13.25;;;6.70;;
30378;SDS011;17168;49.164;9.060;2023-12-14T13:55:01;12.43;;;6.40;;
30378;SDS011;17168;49.164;9.060;2023-12-14T13:57:36;13.27;;;7.55;;
30378;SDS011;17168;49.164;9.060;2023-12-14T14:00:09;13.82;;;6.13;;
30378;SDS011;17168;49.164;9.060;2023-12-14T14:02:43;14.98;;;6.45;;
30378;SDS011;17168;49.164;9.060;2023-12-14T14:05:15;14.25;;;6.95;;
30378;SDS011;17168;49.164;9.060;2023-12-14T14:07:48;13.63;;;6.40;;
30378;SDS011;17168;49.164;9.060;2023-12-14T14:10:23;14.68;;;6.13;;
30378;SDS011;17168;49.164;9.060;2023-12-14T14:13:00;14.23;;;7.30;;
30378;SDS011;17168;49.164;9.060;2023-12-14T14:15:33;12.77;;;5.63;;
30378;SDS011;17168;49.164;9.060;2023-12-14T14:18:08;13.30;;;6.35;;
30378;SDS011;17168;49.164;9.060;2023-12-14T14:20:41;14.20;;;6.63;;
30378;SDS011;17168;49.164;9.060;2023-12-14T14:23:13;13.80;;;6.10;;
30378;SDS011;17168;49.164;9.060;2023-12-14T14:25:46;13.50;;;6.78;;
30378;SDS011;17168;49.164;9.060;2023-12-14T14:28:21;11.57;;;5.18;;
30378;SDS011;17168;49.164;9.060;2023-12-14T14:30:56;12.50;;;6.22;;
30378;SDS011;17168;49.164;9.060;2023-12-14T14:33:28;14.60;;;6.40;;
30378;SDS011;17168;49.164;9.060;2023-12-14T14:36:01;14.13;;;6.70;;
30378;SDS011;17168;49.164;9.060;2023-12-14T14:38:36;12.70;;;5.85;;
30378;SDS011;17168;49.164;9.060;2023-12-14T14:41:08;12.35;;;5.60;;
30378;SDS011;17168;49.164;9.060;2023-12-14T14:43:43;13.77;;;6.32;;
30378;SDS011;17168;49.164;9.060;2023-12-14T14:46:16;15.00;;;4.78;;
30378;SDS011;17168;49.164;9.060;2023-12-14T14:48:48;11.60;;;5.15;;
30378;SDS011;17168;49.164;9.060;2023-12-14T14:51:20;12.90;;;5.78;;
30378;SDS011;17168;49.164;9.060;2023-12-14T14:53:52;14.48;;;7.15;;
30378;SDS011;17168;49.164;9.060;2023-12-14T14:56:25;12.25;;;5.60;;
30378;SDS011;17168;49.164;9.060;2023-12-14T14:59:00;13.35;;;5.78;;
30378;SDS011;17168;49.164;9.060;2023-12-14T15:01:32;13.45;;;6.13;;
30378;SDS011;17168;49.164;9.060;2023-12-14T15:04:04;12.35;;;5.75;;
30378;SDS011;17168;49.164;9.060;2023-12-14T15:06:36;13.07;;;6.40;;
30378;SDS011;17168;49.164;9.060;2023-12-14T15:09:09;11.63;;;4.82;;
30378;SDS011;17168;49.164;9.060;2023-12-14T15:11:41;14.15;;;6.10;;